createdAt,value
2022-12-23T00:01:21.705Z,88.53
2022-12-23T00:03:48.436Z,88.07
2022-12-23T00:06:17.337Z,88.43
2022-12-23T00:08:44.534Z,88.37
2022-12-23T00:11:17.803Z,87.75
2022-12-23T00:14:03.564Z,88.08
2022-12-23T00:16:30.234Z,88.29
2022-12-23T00:18:56.644Z,88.47
2022-12-23T00:21:23.448Z,88.42
2022-12-23T00:23:51.284Z,88.41
2022-12-23T00:26:21.549Z,88.44
2022-12-23T00:28:48.240Z,88.07
2022-12-23T00:31:15.468Z,88.13
2022-12-23T00:33:44.413Z,88.18
2022-12-23T00:36:13.524Z,87.83
2022-12-23T00:38:58.706Z,87.76
2022-12-23T00:41:43.884Z,87.62
2022-12-23T00:44:10.247Z,87.80
2022-12-23T00:46:37.082Z,88.28
2022-12-23T00:49:22.027Z,88.06
2022-12-23T00:51:48.396Z,87.91
2022-12-23T00:54:14.997Z,88.29
2022-12-23T00:56:41.397Z,87.75
2022-12-23T00:59:07.794Z,87.92
2022-12-23T01:01:53.016Z,87.75
2022-12-23T01:04:38.263Z,88.09
2022-12-23T01:07:05.940Z,87.98
2022-12-23T01:09:32.681Z,88.19
2022-12-23T01:11:59.092Z,87.61
2022-12-23T01:14:26.134Z,88.24
2022-12-23T01:16:52.549Z,88.22
2022-12-23T01:19:19.000Z,87.77
2022-12-23T01:21:45.477Z,87.39
2022-12-23T01:24:12.163Z,88.03
2022-12-23T01:26:38.674Z,87.70
2022-12-23T01:29:05.044Z,87.31
2022-12-23T01:31:31.776Z,87.24
2022-12-23T01:33:58.191Z,87.44
2022-12-23T01:36:24.808Z,87.28
2022-12-23T01:38:52.035Z,87.06
2022-12-23T01:41:46.486Z,87.15
2022-12-23T01:44:51.292Z,87.54
2022-12-23T01:47:26.872Z,87.20
2022-12-23T01:50:22.229Z,87.39
2022-12-23T01:53:00.486Z,86.82
2022-12-23T01:55:35.487Z,86.76
2022-12-23T01:58:25.476Z,86.57
2022-12-23T02:01:11.614Z,86.89
2022-12-23T02:03:44.321Z,87.17
2022-12-23T02:06:43.898Z,86.88
2022-12-23T02:09:18.986Z,87.14
2022-12-23T02:12:07.322Z,87.05
2022-12-23T02:15:08.006Z,87.40
2022-12-23T02:17:50.289Z,87.34
2022-12-23T02:21:04.559Z,86.85
2022-12-23T02:23:48.675Z,87.39
2022-12-23T02:26:28.393Z,87.10
2022-12-23T02:29:21.673Z,86.96
2022-12-23T02:31:54.201Z,86.88
2022-12-23T02:34:28.900Z,86.55
2022-12-23T02:37:05.912Z,86.88
2022-12-23T02:39:58.694Z,86.78
2022-12-23T02:42:40.860Z,87.27
2022-12-23T02:45:17.772Z,86.69
2022-12-23T02:47:55.946Z,86.85
2022-12-23T02:50:31.290Z,87.28
2022-12-23T02:53:10.921Z,86.95
2022-12-23T02:55:41.891Z,86.60
2022-12-23T02:58:13.393Z,86.34
2022-12-23T03:00:42.952Z,86.20
2022-12-23T03:03:10.032Z,86.75
2022-12-23T03:05:40.478Z,85.97
2022-12-23T03:08:13.790Z,86.68
2022-12-23T03:10:57.199Z,86.35
2022-12-23T03:14:01.078Z,86.33
2022-12-23T03:16:44.323Z,86.65
2022-12-23T03:19:29.921Z,85.90
2022-12-23T03:22:21.607Z,85.30
2022-12-23T03:25:00.811Z,85.53
2022-12-23T03:27:34.045Z,84.79
2022-12-23T03:30:06.104Z,84.63
2022-12-23T03:32:39.614Z,84.43
2022-12-23T03:35:09.136Z,83.89
2022-12-23T03:37:38.648Z,83.49
2022-12-23T03:40:10.279Z,83.57
2022-12-23T03:42:40.611Z,82.55
2022-12-23T03:45:39.830Z,82.35
2022-12-23T03:48:27.073Z,82.76
2022-12-23T03:51:01.249Z,82.56
2022-12-23T03:53:35.175Z,82.23
2022-12-23T03:56:07.664Z,82.02
2022-12-23T03:58:40.553Z,82.02
2022-12-23T04:01:31.867Z,81.79
2022-12-23T04:04:17.226Z,81.44
2022-12-23T04:06:51.875Z,80.96
2022-12-23T04:09:22.399Z,81.29
2022-12-23T04:11:49.523Z,81.39
2022-12-23T04:14:21.354Z,81.28
2022-12-23T04:16:53.148Z,80.96
2022-12-23T04:19:19.551Z,80.89
2022-12-23T04:21:46.157Z,81.16
2022-12-23T04:24:12.574Z,80.91
2022-12-23T04:26:38.935Z,80.92
2022-12-23T04:29:05.378Z,80.76
2022-12-23T04:31:31.927Z,81.05
2022-12-23T04:33:58.708Z,81.08
2022-12-23T04:36:25.121Z,81.02
2022-12-23T04:38:51.558Z,80.94
2022-12-23T04:41:17.916Z,81.40
2022-12-23T04:43:49.299Z,81.35
2022-12-23T04:46:19.432Z,80.76
2022-12-23T04:48:46.019Z,81.19
2022-12-23T04:51:12.456Z,80.83
2022-12-23T04:53:39.105Z,80.69
2022-12-23T04:56:05.631Z,81.33
2022-12-23T04:58:32.081Z,80.83
2022-12-23T05:01:07.872Z,80.73
2022-12-23T05:03:34.803Z,80.54
2022-12-23T05:06:01.409Z,81.06
2022-12-23T05:08:28.198Z,81.18
2022-12-23T05:10:54.772Z,81.26
2022-12-23T05:13:21.766Z,81.54
2022-12-23T05:15:53.337Z,81.08
2022-12-23T05:18:20.674Z,81.30
2022-12-23T05:20:47.451Z,80.69
2022-12-23T05:23:13.905Z,80.62
2022-12-23T05:25:40.384Z,80.60
2022-12-23T05:28:09.443Z,80.21
2022-12-23T05:30:35.838Z,80.54
2022-12-23T05:33:02.365Z,80.43
2022-12-23T05:35:28.749Z,80.91
2022-12-23T05:37:55.129Z,80.79
2022-12-23T05:40:23.717Z,80.95
2022-12-23T05:42:55.745Z,80.52
2022-12-23T05:45:22.403Z,80.46
2022-12-23T05:47:48.904Z,80.48
2022-12-23T05:50:15.378Z,80.75
2022-12-23T05:52:41.750Z,80.76
2022-12-23T05:55:08.822Z,80.50
2022-12-23T05:57:35.530Z,80.27
2022-12-23T06:00:03.867Z,80.53
2022-12-23T06:02:30.446Z,80.14
2022-12-23T06:04:57.296Z,80.15
2022-12-23T06:07:23.756Z,80.30
2022-12-23T06:09:50.283Z,80.10
2022-12-23T06:12:16.675Z,79.75
2022-12-23T06:14:43.169Z,80.37
2022-12-23T06:17:09.867Z,80.36
2022-12-23T06:19:36.224Z,80.22
2022-12-23T06:22:02.569Z,80.40
2022-12-23T06:24:28.956Z,79.94
2022-12-23T06:26:57.405Z,79.43
2022-12-23T06:29:24.909Z,80.28
2022-12-23T06:31:51.641Z,79.61
2022-12-23T06:34:18.133Z,79.58
2022-12-23T06:36:44.823Z,79.41
2022-12-23T06:39:11.661Z,79.67
2022-12-23T06:41:38.150Z,79.71
2022-12-23T06:44:04.767Z,79.55
2022-12-23T06:46:31.413Z,79.81
2022-12-23T06:48:57.877Z,80.09
2022-12-23T06:51:24.319Z,80.82
2022-12-23T06:53:50.719Z,81.21
2022-12-23T06:56:18.548Z,81.93
2022-12-23T06:58:44.925Z,82.64
2022-12-23T07:01:11.713Z,82.67
2022-12-23T07:03:38.148Z,82.82
2022-12-23T07:06:04.773Z,83.11
2022-12-23T07:08:31.285Z,83.74
2022-12-23T07:10:59.445Z,84.16
2022-12-23T07:13:26.143Z,83.82
2022-12-23T07:15:52.501Z,83.82
2022-12-23T07:18:18.940Z,84.08
2022-12-23T07:20:45.292Z,84.68
2022-12-23T07:23:11.860Z,84.70
2022-12-23T07:25:38.206Z,84.63
2022-12-23T07:28:04.777Z,84.56
2022-12-23T07:30:31.215Z,84.80
2022-12-23T07:32:57.784Z,84.80
2022-12-23T07:35:24.150Z,85.28
2022-12-23T07:37:55.578Z,85.12
2022-12-23T07:40:23.087Z,84.52
2022-12-23T07:42:50.342Z,84.60
2022-12-23T07:45:17.075Z,84.20
2022-12-23T07:47:43.505Z,84.61
2022-12-23T07:50:10.059Z,84.51
2022-12-23T07:52:36.842Z,84.83
2022-12-23T07:55:03.595Z,84.12
2022-12-23T07:57:30.191Z,84.44
2022-12-23T07:59:56.810Z,84.85
2022-12-23T08:02:25.231Z,85.21
2022-12-23T08:04:52.005Z,85.46
2022-12-23T08:07:18.521Z,85.58
2022-12-23T08:09:44.960Z,85.26
2022-12-23T08:12:11.329Z,85.22
2022-12-23T08:14:37.715Z,84.80
2022-12-23T08:17:04.101Z,84.02
2022-12-23T08:19:30.819Z,83.61
2022-12-23T08:21:57.217Z,83.68
2022-12-23T08:24:23.594Z,83.31
2022-12-23T08:26:50.095Z,83.05
2022-12-23T08:29:16.709Z,82.58
2022-12-23T08:31:43.084Z,82.96
2022-12-23T08:34:10.489Z,82.39
2022-12-23T08:36:37.020Z,82.68
2022-12-23T08:39:07.968Z,82.41
2022-12-23T08:41:40.150Z,82.28
2022-12-23T08:44:06.908Z,82.25
2022-12-23T08:46:34.635Z,82.20
2022-12-23T08:49:01.245Z,82.47
2022-12-23T08:51:27.996Z,81.56
2022-12-23T08:54:00.517Z,81.94
2022-12-23T08:56:33.237Z,81.29
2022-12-23T08:59:00.398Z,81.78
2022-12-23T09:01:29.271Z,82.00
2022-12-23T09:03:56.565Z,81.77
2022-12-23T09:06:29.553Z,81.56
2022-12-23T09:08:56.972Z,81.66
2022-12-23T09:11:25.638Z,82.29
2022-12-23T09:13:53.396Z,81.27
2022-12-23T09:16:20.247Z,81.11
2022-12-23T09:18:46.859Z,80.72
2022-12-23T09:21:16.353Z,80.65
2022-12-23T09:23:43.110Z,80.86
2022-12-23T09:26:10.798Z,80.08
2022-12-23T09:28:37.328Z,80.87
2022-12-23T09:31:08.690Z,80.33
2022-12-23T09:33:35.604Z,79.93
2022-12-23T09:36:03.230Z,80.19
2022-12-23T09:38:29.989Z,79.79
2022-12-23T09:41:03.729Z,80.07
2022-12-23T09:43:53.915Z,80.24
2022-12-23T09:46:23.519Z,79.85
2022-12-23T09:48:59.464Z,80.16
2022-12-23T09:51:26.132Z,80.24
2022-12-23T09:54:16.895Z,80.21
2022-12-23T09:56:58.518Z,80.29
2022-12-23T09:59:51.103Z,79.72
2022-12-23T10:02:45.404Z,79.87
2022-12-23T10:05:47.476Z,79.37
2022-12-23T10:08:38.237Z,79.22
2022-12-23T10:11:28.066Z,78.83
2022-12-23T10:14:03.195Z,79.17
2022-12-23T10:16:38.497Z,78.56
2022-12-23T10:19:28.654Z,78.73
2022-12-23T10:22:02.240Z,78.70
2022-12-23T10:24:37.951Z,78.35
2022-12-23T10:27:13.442Z,78.67
2022-12-23T10:29:40.723Z,78.32
2022-12-23T10:32:20.300Z,78.33
2022-12-23T10:35:01.086Z,78.17
2022-12-23T10:37:33.226Z,78.04
2022-12-23T10:40:11.907Z,78.08
2022-12-23T10:42:58.566Z,78.37
2022-12-23T10:45:46.173Z,78.22
2022-12-23T10:48:54.952Z,78.11
2022-12-23T10:51:28.614Z,77.81
2022-12-23T10:54:09.722Z,78.16
2022-12-23T10:56:36.366Z,78.02
2022-12-23T10:59:03.546Z,77.60
2022-12-23T11:01:31.492Z,77.31
2022-12-23T11:04:14.264Z,77.52
2022-12-23T11:06:44.413Z,77.47
2022-12-23T11:09:41.787Z,76.98
2022-12-23T11:12:10.684Z,76.91
2022-12-23T11:14:55.036Z,76.51
2022-12-23T11:17:29.903Z,77.08
2022-12-23T11:20:11.371Z,76.53
2022-12-23T11:22:52.083Z,76.08
2022-12-23T11:25:24.895Z,76.53
2022-12-23T11:27:56.078Z,76.38
2022-12-23T11:30:22.548Z,76.36
2022-12-23T11:32:50.283Z,76.21
2022-12-23T11:35:27.882Z,76.32
2022-12-23T11:37:55.575Z,75.96
2022-12-23T11:40:38.259Z,76.28
2022-12-23T11:43:11.631Z,75.45
2022-12-23T11:45:38.321Z,75.68
2022-12-23T11:48:06.696Z,75.62
2022-12-23T11:50:37.620Z,75.52
2022-12-23T11:53:10.913Z,75.47
2022-12-23T11:55:48.706Z,75.63
2022-12-23T11:58:21.022Z,75.24
2022-12-23T12:00:56.089Z,75.54
2022-12-23T12:03:28.135Z,75.34
2022-12-23T12:06:06.646Z,75.03
2022-12-23T12:08:37.418Z,75.63
2022-12-23T12:11:16.733Z,75.26
2022-12-23T12:13:47.532Z,75.06
2022-12-23T12:16:23.635Z,75.35
2022-12-23T12:18:55.520Z,75.65
2022-12-23T12:21:31.201Z,75.15
2022-12-23T12:24:18.273Z,74.96
2022-12-23T12:26:59.967Z,75.38
2022-12-23T12:29:41.522Z,75.23
2022-12-23T12:32:19.149Z,75.37
2022-12-23T12:34:57.065Z,74.92
2022-12-23T12:37:38.017Z,75.02
2022-12-23T12:40:34.982Z,74.91
2022-12-23T12:43:15.619Z,74.88
2022-12-23T12:45:50.276Z,75.07
2022-12-23T12:48:29.535Z,74.97
2022-12-23T12:51:33.629Z,75.19
2022-12-23T12:54:06.665Z,75.21
2022-12-23T12:56:53.932Z,74.98
2022-12-23T12:59:24.801Z,74.75
2022-12-23T13:02:20.281Z,74.67
2022-12-23T13:05:11.619Z,74.58
2022-12-23T13:07:55.213Z,74.86
2022-12-23T13:10:57.230Z,74.74
2022-12-23T13:13:29.693Z,74.97
2022-12-23T13:16:07.091Z,75.36
2022-12-23T13:18:38.884Z,75.93
2022-12-23T13:21:16.347Z,75.66
2022-12-23T13:24:03.851Z,75.98
2022-12-23T13:26:38.033Z,75.99
2022-12-23T13:29:34.592Z,76.26
2022-12-23T13:32:11.256Z,75.62
2022-12-23T13:35:08.770Z,75.99
2022-12-23T13:37:59.876Z,76.20
2022-12-23T13:40:49.485Z,76.10
2022-12-23T13:43:20.433Z,76.13
2022-12-23T13:45:47.802Z,76.45
2022-12-23T13:48:37.087Z,76.09
2022-12-23T13:51:15.143Z,76.12
2022-12-23T13:54:05.733Z,75.85
2022-12-23T13:57:07.935Z,76.18
2022-12-23T13:59:40.291Z,75.91
2022-12-23T14:02:37.718Z,76.47
2022-12-23T14:05:08.321Z,76.24
2022-12-23T14:07:37.174Z,76.01
2022-12-23T14:10:21.989Z,76.05
2022-12-23T14:12:50.436Z,76.45
2022-12-23T14:15:42.562Z,76.12
2022-12-23T14:18:14.922Z,76.35
2022-12-23T14:20:51.712Z,76.90
2022-12-23T14:23:46.115Z,76.31
2022-12-23T14:26:24.711Z,76.40
2022-12-23T14:29:12.781Z,76.39
2022-12-23T14:31:39.069Z,76.43
2022-12-23T14:34:17.716Z,75.90
2022-12-23T14:37:16.616Z,75.85
2022-12-23T14:39:43.784Z,75.89
2022-12-23T14:42:16.336Z,75.89
2022-12-23T14:44:46.332Z,75.90
2022-12-23T14:47:36.540Z,75.88
2022-12-23T14:50:42.534Z,76.17
2022-12-23T14:53:25.327Z,75.91
2022-12-23T14:56:12.006Z,75.78
2022-12-23T14:58:53.841Z,76.34
2022-12-23T15:01:30.200Z,76.37
2022-12-23T15:04:01.518Z,75.98
2022-12-23T15:06:35.265Z,75.92
2022-12-23T15:09:02.593Z,76.44
2022-12-23T15:11:31.539Z,76.22
2022-12-23T15:14:01.488Z,76.15
2022-12-23T15:16:35.026Z,76.42
2022-12-23T15:19:16.592Z,76.64
2022-12-23T15:21:46.208Z,76.31
2022-12-23T15:24:20.278Z,75.78
2022-12-23T15:27:24.544Z,75.99
2022-12-23T15:29:43.454Z,76.38
2022-12-23T15:32:10.934Z,76.26
2022-12-23T15:34:37.688Z,76.22
2022-12-23T15:37:10.725Z,76.29
2022-12-23T15:39:40.651Z,76.53
2022-12-23T15:42:21.543Z,76.63
2022-12-23T15:44:47.887Z,76.71
2022-12-23T15:47:29.872Z,76.38
2022-12-23T15:49:58.826Z,76.57
2022-12-23T15:52:27.078Z,76.31
2022-12-23T15:55:01.745Z,76.75
2022-12-23T15:57:30.166Z,75.93
2022-12-23T15:59:58.580Z,75.98
2022-12-23T16:05:32.936Z,76.33
2022-12-23T16:08:11.693Z,75.99
2022-12-23T16:10:39.086Z,76.72
2022-12-23T16:13:16.358Z,76.12
2022-12-23T16:15:42.763Z,75.75
2022-12-23T16:18:32.660Z,75.47
2022-12-23T16:21:02.703Z,76.17
2022-12-23T16:23:30.781Z,75.79
2022-12-23T16:26:13.651Z,76.12
2022-12-23T16:28:42.951Z,76.19
2022-12-23T16:31:10.469Z,76.25
2022-12-23T16:34:11.623Z,75.65
2022-12-23T16:36:38.115Z,75.70
2022-12-23T16:39:07.280Z,75.57
2022-12-23T16:41:34.742Z,75.56
2022-12-23T16:44:01.479Z,75.57
2022-12-23T16:46:31.756Z,74.85
2022-12-23T16:49:00.899Z,75.21
2022-12-23T16:51:30.183Z,74.67
2022-12-23T16:53:57.514Z,75.09
2022-12-23T16:56:28.360Z,75.64
2022-12-23T16:58:54.723Z,75.79
2022-12-23T17:01:23.148Z,75.86
2022-12-23T17:03:50.157Z,75.67
2022-12-23T17:06:17.213Z,75.90
2022-12-23T17:08:43.843Z,76.04
2022-12-23T17:11:19.496Z,75.46
2022-12-23T17:13:45.777Z,75.65
2022-12-23T17:16:21.436Z,75.80
2022-12-23T17:18:48.349Z,75.69
2022-12-23T17:21:21.383Z,76.10
2022-12-23T17:23:48.438Z,76.63
2022-12-23T17:26:14.800Z,78.52
2022-12-23T17:28:41.325Z,77.87
2022-12-23T17:31:13.942Z,77.54
2022-12-23T17:33:42.183Z,77.72
2022-12-23T17:36:10.963Z,77.99
2022-12-23T17:38:37.416Z,79.24
2022-12-23T17:41:04.248Z,80.40
2022-12-23T17:43:30.671Z,80.26
2022-12-23T17:45:57.242Z,80.97
2022-12-23T17:48:29.591Z,81.51
2022-12-23T17:50:57.958Z,81.99
2022-12-23T17:53:24.334Z,82.11
2022-12-23T17:55:50.775Z,82.59
2022-12-23T17:58:17.125Z,82.59
2022-12-23T18:00:43.570Z,82.51
2022-12-23T18:03:23.176Z,82.85
2022-12-23T18:05:52.975Z,82.61
2022-12-23T18:08:23.704Z,82.98
2022-12-23T18:10:50.178Z,83.18
2022-12-23T18:13:19.373Z,83.03
2022-12-23T18:15:46.365Z,82.79
2022-12-23T18:18:24.406Z,83.36
2022-12-23T18:20:57.233Z,83.32
2022-12-23T18:23:27.334Z,83.13
2022-12-23T18:25:54.425Z,83.71
2022-12-23T18:28:21.165Z,83.71
2022-12-23T18:30:47.595Z,83.43
2022-12-23T18:33:14.110Z,84.02
2022-12-23T18:35:45.854Z,84.17
2022-12-23T18:38:12.615Z,84.10
2022-12-23T18:40:40.141Z,84.51
2022-12-23T18:43:06.891Z,84.34
2022-12-23T18:45:38.338Z,84.52
2022-12-23T18:48:07.202Z,84.55
2022-12-23T18:50:35.960Z,85.08
2022-12-23T18:53:02.964Z,85.18
2022-12-23T18:55:32.921Z,85.14
2022-12-23T18:58:01.051Z,84.95
2022-12-23T19:00:30.516Z,85.29
2022-12-23T19:02:57.722Z,85.02
2022-12-23T19:05:29.529Z,85.59
2022-12-23T19:07:58.374Z,85.88
2022-12-23T19:10:30.514Z,86.34
2022-12-23T19:12:56.987Z,86.22
2022-12-23T19:15:23.619Z,86.35
2022-12-23T19:17:50.570Z,86.15
2022-12-23T19:20:18.564Z,86.62
2022-12-23T19:22:45.642Z,87.04
2022-12-23T19:25:14.860Z,87.19
2022-12-23T19:27:42.169Z,87.20
2022-12-23T19:30:12.440Z,87.51
2022-12-23T19:32:38.833Z,87.42
2022-12-23T19:35:05.517Z,87.79
2022-12-23T19:37:32.477Z,87.73
2022-12-23T19:39:59.811Z,87.71
2022-12-23T19:42:26.170Z,87.78
2022-12-23T19:44:52.598Z,87.58
2022-12-23T19:47:19.119Z,87.64
2022-12-23T19:49:45.502Z,87.65
2022-12-23T19:52:11.940Z,87.88
2022-12-23T19:54:38.311Z,87.86
2022-12-23T19:57:04.674Z,88.01
2022-12-23T19:59:31.360Z,87.72
2022-12-23T20:01:57.850Z,87.49
2022-12-23T20:04:24.958Z,87.63
2022-12-23T20:06:51.588Z,88.27
2022-12-23T20:09:18.495Z,87.95
2022-12-23T20:11:47.282Z,88.28
2022-12-23T20:14:16.103Z,88.18
2022-12-23T20:16:42.699Z,87.84
2022-12-23T20:19:09.074Z,88.01
2022-12-23T20:21:37.440Z,87.95
2022-12-23T20:24:05.744Z,88.04
2022-12-23T20:26:32.333Z,87.95
2022-12-23T20:28:59.576Z,88.04
2022-12-23T20:31:28.541Z,88.11
2022-12-23T20:33:56.089Z,87.14
2022-12-23T20:36:27.718Z,87.87
2022-12-23T20:38:57.196Z,87.67
2022-12-23T20:41:27.502Z,87.70
2022-12-23T20:44:31.617Z,87.66
2022-12-23T20:46:41.278Z,88.14
2022-12-23T20:49:07.709Z,88.33
2022-12-23T20:51:34.085Z,87.97
2022-12-23T20:54:00.920Z,88.27
2022-12-23T20:56:29.111Z,88.03
2022-12-23T20:58:57.668Z,87.67
2022-12-23T21:01:37.704Z,87.04
2022-12-23T21:04:06.809Z,87.91
2022-12-23T21:06:33.862Z,87.71
2022-12-23T21:09:01.734Z,87.48
2022-12-23T21:11:29.799Z,87.91
2022-12-23T21:14:01.175Z,87.85
2022-12-23T21:16:31.245Z,87.85
2022-12-23T21:18:58.147Z,87.89
2022-12-23T21:21:26.663Z,87.93
2022-12-23T21:23:58.777Z,88.28
2022-12-23T21:26:27.144Z,88.15
2022-12-23T21:28:55.056Z,88.69
2022-12-23T21:31:23.608Z,88.65
2022-12-23T21:33:51.666Z,88.95
2022-12-23T21:36:21.093Z,88.49
2022-12-23T21:38:49.421Z,88.77
2022-12-23T21:41:21.719Z,88.94
2022-12-23T21:43:49.581Z,88.79
2022-12-23T21:46:19.018Z,88.86
2022-12-23T21:48:47.275Z,88.77
2022-12-23T21:51:17.480Z,88.97
2022-12-23T21:53:45.699Z,88.64
2022-12-23T21:56:15.158Z,88.34
2022-12-23T21:58:42.043Z,88.78
2022-12-23T22:01:18.730Z,88.79
2022-12-23T22:03:47.443Z,89.05
2022-12-23T22:06:19.802Z,88.82
2022-12-23T22:08:46.526Z,89.13
2022-12-23T22:11:15.692Z,89.04
2022-12-23T22:13:42.475Z,88.67
2022-12-23T22:16:10.980Z,89.15
2022-12-23T22:18:38.261Z,89.18
2022-12-23T22:21:06.385Z,89.22
2022-12-23T22:23:33.055Z,89.31
2022-12-23T22:25:59.503Z,89.30
2022-12-23T22:28:25.996Z,88.99
2022-12-23T22:30:52.395Z,88.64
2022-12-23T22:33:18.872Z,88.22
2022-12-23T22:35:54.553Z,88.21
2022-12-23T22:38:22.203Z,88.11
2022-12-23T22:40:52.678Z,88.06
2022-12-23T22:43:20.144Z,88.29
2022-12-23T22:45:46.803Z,88.10
2022-12-23T22:48:13.757Z,85.58
2022-12-23T22:50:40.228Z,84.45
2022-12-23T22:53:06.825Z,84.49
2022-12-23T22:55:33.318Z,85.98
2022-12-23T22:57:59.743Z,86.51
2022-12-23T23:00:26.352Z,87.02
2022-12-23T23:02:52.699Z,87.65
2022-12-23T23:05:19.662Z,87.97
2022-12-23T23:07:46.084Z,88.25
2022-12-23T23:10:12.633Z,87.96
2022-12-23T23:12:39.086Z,86.65
2022-12-23T23:15:05.837Z,81.73
2022-12-23T23:17:32.442Z,82.99
2022-12-23T23:19:59.107Z,82.75
2022-12-23T23:22:25.547Z,83.69
2022-12-23T23:24:52.264Z,83.65
2022-12-23T23:27:19.044Z,83.67
2022-12-23T23:29:48.603Z,84.25
2022-12-23T23:32:15.010Z,84.40
2022-12-23T23:34:42.178Z,83.97
2022-12-23T23:37:08.583Z,84.64
2022-12-23T23:39:34.967Z,84.19
2022-12-23T23:42:01.439Z,84.39
2022-12-23T23:44:27.890Z,84.67
2022-12-23T23:46:54.236Z,84.87
2022-12-23T23:49:21.585Z,84.08
2022-12-23T23:51:47.967Z,83.83
2022-12-23T23:54:14.382Z,83.66
2022-12-23T23:56:40.771Z,82.87
2022-12-23T23:59:08.938Z,83.06
